createdAt,value
2023-02-13T00:04:07.498Z,100085.81
2023-02-13T00:09:29.974Z,100066.91
2023-02-13T00:14:52.140Z,100045.25
2023-02-13T00:20:14.493Z,100027.44
2023-02-13T00:25:36.250Z,100052.16
2023-02-13T00:31:05.368Z,100055.31
2023-02-13T00:36:27.163Z,100044.09
2023-02-13T00:41:49.004Z,99989.38
2023-02-13T00:47:11.263Z,100041.72
2023-02-13T00:52:33.701Z,100043.88
2023-02-13T00:57:56.183Z,100044.00
2023-02-13T01:03:18.877Z,100010.72
2023-02-13T01:08:41.692Z,99998.97
2023-02-13T01:14:04.207Z,99995.94
2023-02-13T01:19:26.376Z,99975.00
2023-02-13T01:24:48.797Z,99968.88
2023-02-13T01:30:14.328Z,99976.59
2023-02-13T01:35:36.530Z,99966.28
2023-02-13T01:40:58.958Z,99953.66
2023-02-13T01:46:38.257Z,99935.69
2023-02-13T01:52:00.814Z,99930.53
2023-02-13T02:03:27.940Z,99922.56
2023-02-13T02:08:56.650Z,99928.31
2023-02-13T02:14:20.906Z,99928.06
2023-02-13T02:19:58.986Z,99911.81
2023-02-13T02:26:02.887Z,99918.84
2023-02-13T02:31:58.765Z,99907.41
2023-02-13T02:37:37.587Z,99906.44
2023-02-13T02:43:19.593Z,99902.50
2023-02-13T02:49:18.806Z,99889.13
2023-02-13T02:55:08.743Z,99872.03
2023-02-13T03:01:03.073Z,99884.13
2023-02-13T03:06:45.408Z,99870.16
2023-02-13T03:12:28.864Z,99865.75
2023-02-13T03:18:10.076Z,99858.59
2023-02-13T03:23:50.360Z,99856.63
2023-02-13T03:29:47.980Z,99836.75
2023-02-13T03:35:46.643Z,99856.44
2023-02-13T03:41:19.337Z,99812.59
2023-02-13T03:46:47.371Z,99800.50
2023-02-13T03:52:23.222Z,99810.56
2023-02-13T03:58:06.695Z,99810.03
2023-02-13T04:03:44.035Z,99774.69
2023-02-13T04:09:06.163Z,99764.91
2023-02-13T04:14:55.144Z,99765.41
2023-02-13T04:20:17.771Z,99766.78
2023-02-13T04:25:42.397Z,99751.84
2023-02-13T04:31:04.953Z,99736.63
2023-02-13T04:36:27.640Z,99741.13
2023-02-13T04:41:49.921Z,99723.66
2023-02-13T04:47:11.798Z,99698.34
2023-02-13T04:52:34.082Z,99718.22
2023-02-13T04:57:56.763Z,99713.44
2023-02-13T05:03:18.893Z,99703.81
2023-02-13T05:08:40.913Z,99712.47
2023-02-13T05:14:03.007Z,99676.84
2023-02-13T05:19:25.261Z,99686.31
2023-02-13T05:24:47.884Z,99687.25
2023-02-13T05:30:10.551Z,99684.44
2023-02-13T05:35:32.441Z,99691.41
2023-02-13T05:40:54.287Z,99689.34
2023-02-13T05:46:16.335Z,99681.84
2023-02-13T05:51:38.329Z,99693.31
2023-02-13T05:57:00.066Z,99684.03
2023-02-13T06:02:19.521Z,99660.13
2023-02-13T06:07:42.125Z,99683.00
2023-02-13T06:13:04.212Z,99678.38
2023-02-13T06:18:26.055Z,99670.50
2023-02-13T06:23:48.041Z,99656.47
2023-02-13T06:29:11.731Z,99660.16
2023-02-13T06:34:33.702Z,99653.16
2023-02-13T06:39:55.584Z,99629.59
2023-02-13T06:45:17.286Z,99645.44
2023-02-13T06:50:39.551Z,99646.94
2023-02-13T06:56:05.868Z,99626.28
2023-02-13T07:01:28.023Z,99592.69
2023-02-13T07:06:51.984Z,99567.56
2023-02-13T07:12:13.603Z,99552.47
2023-02-13T07:17:35.703Z,99553.81
2023-02-13T07:23:05.355Z,99536.25
2023-02-13T07:28:28.837Z,99545.44
2023-02-13T07:33:51.070Z,99538.00
2023-02-13T07:39:13.479Z,99549.81
2023-02-13T07:44:36.033Z,99532.22
2023-02-13T07:49:57.862Z,99505.59
2023-02-13T07:55:20.147Z,99531.09
2023-02-13T08:00:41.936Z,99497.53
2023-02-13T08:06:04.628Z,99514.97
2023-02-13T08:11:51.958Z,99475.56
2023-02-13T08:17:14.243Z,99482.44
2023-02-13T08:22:41.045Z,99483.06
2023-02-13T08:28:03.276Z,99469.72
2023-02-13T08:33:25.522Z,99451.16
2023-02-13T08:38:48.378Z,99458.22
2023-02-13T08:44:11.109Z,99438.63
2023-02-13T08:49:34.105Z,99432.38
2023-02-13T08:54:56.342Z,99425.69
2023-02-13T09:00:19.424Z,99404.28
2023-02-13T09:05:41.766Z,99398.22
2023-02-13T09:11:07.170Z,99364.66
2023-02-13T09:16:29.047Z,99366.69
2023-02-13T09:21:50.849Z,99387.50
2023-02-13T09:27:12.649Z,99351.75
2023-02-13T09:32:35.078Z,99342.44
2023-02-13T09:37:57.027Z,99328.66
2023-02-13T09:43:32.211Z,99330.66
2023-02-13T09:49:00.812Z,99352.44
2023-02-13T09:54:23.089Z,99316.47
2023-02-13T09:59:57.859Z,99326.94
2023-02-13T10:05:40.413Z,99327.34
2023-02-13T10:11:28.614Z,99325.72
2023-02-13T10:17:01.291Z,99332.78
2023-02-13T10:22:41.122Z,99328.13
2023-02-13T10:28:18.250Z,99334.22
2023-02-13T10:34:07.166Z,99311.97
2023-02-13T10:39:31.495Z,99309.13
2023-02-13T10:45:21.529Z,99313.72
2023-02-13T10:51:14.628Z,99319.34
2023-02-13T10:57:01.608Z,99312.06
2023-02-13T11:02:25.354Z,99307.81
2023-02-13T11:07:48.932Z,99300.88
2023-02-13T11:13:22.003Z,99272.94
2023-02-13T11:18:51.179Z,99253.94
2023-02-13T11:24:25.228Z,99258.75
2023-02-13T11:29:59.183Z,99253.38
2023-02-13T11:35:33.813Z,99227.38
2023-02-13T11:41:19.140Z,99221.50
2023-02-13T11:46:50.808Z,99229.16
2023-02-13T11:52:29.099Z,99226.66
2023-02-13T11:58:24.138Z,99236.94
2023-02-13T12:03:58.857Z,99181.66
2023-02-13T12:09:20.904Z,99208.00
2023-02-13T12:14:45.766Z,99201.44
2023-02-13T12:20:16.567Z,99161.97
2023-02-13T12:26:00.763Z,99158.84
2023-02-13T12:31:53.169Z,99153.28
2023-02-13T12:37:47.207Z,99136.47
2023-02-13T12:43:34.327Z,99123.50
2023-02-13T12:49:23.827Z,99122.72
2023-02-13T12:54:57.767Z,99109.63
2023-02-13T13:00:41.172Z,99088.84
2023-02-13T13:06:24.418Z,99102.31
2023-02-13T13:12:01.711Z,99109.19
2023-02-13T13:17:52.197Z,99086.06
2023-02-13T13:23:54.332Z,99103.47
2023-02-13T13:29:30.375Z,99100.03
2023-02-13T13:34:53.170Z,99080.16
2023-02-13T13:40:38.630Z,99097.75
2023-02-13T13:46:16.537Z,99104.69
2023-02-13T13:51:39.069Z,99059.16
2023-02-13T13:57:03.136Z,99079.78
2023-02-13T14:02:27.986Z,99077.94
2023-02-13T14:07:55.767Z,99059.47
2023-02-13T14:13:31.884Z,99061.34
2023-02-13T14:18:54.340Z,99052.41
2023-02-13T14:24:20.819Z,99055.00
2023-02-13T14:29:48.990Z,99041.69
2023-02-13T14:35:26.091Z,99051.91
2023-02-13T14:40:55.300Z,99022.94
2023-02-13T14:46:30.937Z,99012.22
2023-02-13T14:51:57.551Z,98996.88
2023-02-13T15:03:29.893Z,98958.50
2023-02-13T15:08:54.179Z,98973.25
2023-02-13T15:14:26.844Z,98950.53
2023-02-13T15:19:52.350Z,98932.84
2023-02-13T15:25:34.846Z,98957.66
2023-02-13T15:31:06.205Z,98941.66
2023-02-13T15:36:41.023Z,98925.47
2023-02-13T15:42:03.822Z,98911.50
2023-02-13T15:47:32.342Z,98894.91
2023-02-13T15:52:54.880Z,98892.53
2023-02-13T15:58:17.242Z,98890.78
2023-02-13T16:03:43.028Z,98885.09
2023-02-13T16:09:06.703Z,98880.84
2023-02-13T16:14:32.489Z,98869.31
2023-02-13T16:20:13.076Z,98873.44
2023-02-13T16:25:40.169Z,98851.94
2023-02-13T16:31:03.874Z,98839.47
2023-02-13T16:36:31.107Z,98824.31
2023-02-13T16:42:00.846Z,98814.81
2023-02-13T16:47:26.238Z,98825.47
2023-02-13T16:52:48.416Z,98815.19
2023-02-13T16:58:18.805Z,98803.63
2023-02-13T17:03:42.142Z,98801.66
2023-02-13T17:09:04.287Z,98779.69
2023-02-13T17:14:26.562Z,98749.69
2023-02-13T17:19:49.591Z,98763.88
2023-02-13T17:25:23.652Z,98764.06
2023-02-13T17:30:46.439Z,98742.78
2023-02-13T17:36:12.186Z,98746.53
2023-02-13T17:41:34.249Z,98730.16
2023-02-13T17:46:56.303Z,98718.34
2023-02-13T17:52:26.208Z,98696.59
2023-02-13T17:58:13.384Z,98704.13
2023-02-13T18:03:41.183Z,98682.94
2023-02-13T18:09:03.442Z,98669.19
2023-02-13T18:14:25.842Z,98663.78
2023-02-13T18:19:51.364Z,98657.00
2023-02-13T18:25:14.888Z,98642.31
2023-02-13T18:30:37.040Z,98649.38
2023-02-13T18:36:03.375Z,98619.94
2023-02-13T18:41:26.002Z,98610.22
2023-02-13T18:46:48.466Z,98594.97
2023-02-13T18:52:10.641Z,98593.69
2023-02-13T18:57:32.918Z,98607.13
2023-02-13T19:02:59.814Z,98603.22
2023-02-13T19:08:21.603Z,98592.19
2023-02-13T19:13:44.575Z,98580.59
2023-02-13T19:19:07.755Z,98580.69
2023-02-13T19:24:29.764Z,98555.25
2023-02-13T19:29:52.344Z,98557.03
2023-02-13T19:35:14.706Z,98539.28
2023-02-13T19:40:36.348Z,98540.22
2023-02-13T19:46:02.386Z,98540.31
2023-02-13T19:51:26.719Z,98528.69
2023-02-13T19:56:48.709Z,98514.22
2023-02-13T20:02:15.208Z,98504.16
2023-02-13T20:07:48.944Z,98499.47
2023-02-13T20:13:11.129Z,98466.34
2023-02-13T20:18:35.133Z,98491.19
2023-02-13T20:23:57.423Z,98471.78
2023-02-13T20:29:19.543Z,98462.34
2023-02-13T20:34:59.002Z,98453.88
2023-02-13T20:40:22.258Z,98460.81
2023-02-13T20:45:47.766Z,98473.63
2023-02-13T20:51:15.018Z,98476.88
2023-02-13T20:56:37.160Z,98465.72
2023-02-13T21:01:59.619Z,98458.91
2023-02-13T21:07:23.897Z,98476.16
2023-02-13T21:12:45.680Z,98457.31
2023-02-13T21:18:07.659Z,98448.59
2023-02-13T21:23:29.623Z,98448.16
2023-02-13T21:28:52.324Z,98457.00
2023-02-13T21:34:15.558Z,98457.25
2023-02-13T21:39:38.021Z,98450.66
2023-02-13T21:45:00.205Z,98450.59
2023-02-13T21:50:22.786Z,98444.00
2023-02-13T21:55:44.492Z,98459.03
2023-02-13T22:01:25.494Z,98454.78
2023-02-13T22:06:51.721Z,98463.31
2023-02-13T22:12:14.013Z,98432.19
2023-02-13T22:17:37.290Z,98468.59
2023-02-13T22:22:59.396Z,98441.78
2023-02-13T22:28:21.552Z,98469.94
2023-02-13T22:33:47.445Z,98452.63
2023-02-13T22:39:13.114Z,98435.97
2023-02-13T22:44:35.098Z,98451.66
2023-02-13T22:49:57.461Z,98425.03
2023-02-13T22:55:19.730Z,98457.44
2023-02-13T23:00:42.345Z,98467.94
2023-02-13T23:06:06.300Z,98472.91
2023-02-13T23:11:48.032Z,98472.03
2023-02-13T23:17:28.758Z,98468.78
2023-02-13T23:22:50.999Z,98461.84
2023-02-13T23:28:13.020Z,98474.06
2023-02-13T23:33:35.482Z,98472.72
2023-02-13T23:38:57.860Z,98471.94
2023-02-13T23:44:19.744Z,98488.41
2023-02-13T23:49:41.841Z,98496.41
2023-02-13T23:55:03.775Z,98502.75
